createdAt,value
2023-10-06T03:21:58.173Z,14.46
2023-10-06T03:25:01.507Z,14.46
2023-10-06T03:28:05.649Z,13.95
2023-10-06T03:31:23.643Z,13.78
2023-10-06T03:34:27.300Z,13.65
2023-10-06T03:37:37.804Z,13.43
2023-10-06T03:40:58.257Z,13.32
2023-10-06T03:44:06.733Z,13.19
2023-10-06T03:47:10.111Z,13.13
2023-10-06T03:50:14.878Z,13.17
2023-10-06T03:53:17.140Z,13.21
2023-10-06T03:56:20.235Z,13.15
2023-10-06T03:59:24.608Z,13.05
2023-10-06T04:02:28.204Z,13.02
2023-10-06T04:05:30.721Z,12.83
2023-10-06T04:08:32.944Z,12.58
2023-10-06T04:11:35.801Z,12.50
2023-10-06T04:14:38.014Z,12.42
2023-10-06T04:17:40.609Z,12.57
2023-10-06T04:20:44.289Z,12.53
2023-10-06T04:23:46.750Z,12.36
2023-10-06T04:26:48.956Z,12.20
2023-10-06T04:29:53.912Z,12.19
2023-10-06T04:32:56.613Z,12.26
2023-10-06T04:36:09.084Z,12.14
2023-10-06T04:39:16.965Z,12.12
2023-10-06T04:42:20.060Z,12.08
2023-10-06T04:45:22.305Z,12.15
2023-10-06T04:48:24.810Z,12.18
2023-10-06T04:51:28.423Z,12.22
2023-10-06T04:54:31.477Z,12.13
2023-10-06T04:57:33.666Z,12.12
2023-10-06T05:00:36.176Z,12.12
2023-10-06T05:03:45.043Z,12.09
2023-10-06T05:06:48.074Z,12.11
2023-10-06T05:09:50.732Z,12.11
2023-10-06T05:12:53.910Z,12.09
2023-10-06T05:15:56.528Z,12.08
2023-10-06T05:18:59.030Z,12.09
2023-10-06T05:22:01.718Z,12.09
2023-10-06T05:25:05.639Z,12.33
2023-10-06T05:28:17.822Z,12.51
2023-10-06T05:31:20.656Z,12.48
2023-10-06T05:34:24.595Z,12.48
2023-10-06T05:37:27.082Z,12.42
2023-10-06T05:40:32.160Z,12.61
2023-10-06T05:43:34.659Z,12.60
2023-10-06T05:46:37.460Z,12.44
2023-10-06T05:49:46.665Z,12.42
2023-10-06T05:52:53.114Z,12.58
2023-10-06T05:55:56.249Z,13.06
2023-10-06T05:58:58.546Z,13.18
2023-10-06T06:02:03.333Z,13.27
2023-10-06T06:05:09.064Z,13.20
2023-10-06T06:08:11.399Z,13.35
2023-10-06T06:11:14.754Z,13.44
2023-10-06T06:14:18.117Z,13.74
2023-10-06T06:17:21.774Z,14.02
2023-10-06T06:20:24.061Z,13.93
2023-10-06T06:23:26.807Z,13.84
2023-10-06T06:26:30.874Z,13.87
2023-10-06T06:29:33.364Z,13.88
2023-10-06T06:32:36.590Z,14.08
2023-10-06T06:35:43.228Z,14.21
2023-10-06T06:38:46.617Z,14.33
2023-10-06T06:41:49.134Z,14.58
2023-10-06T06:44:55.124Z,14.43
2023-10-06T06:47:57.769Z,14.40
2023-10-06T06:51:01.003Z,14.35
2023-10-06T06:54:04.546Z,14.34
2023-10-06T06:57:06.748Z,14.47
2023-10-06T07:00:16.772Z,14.47
2023-10-06T07:03:19.208Z,14.48
2023-10-06T07:06:22.320Z,14.72
2023-10-06T07:09:24.675Z,14.98
2023-10-06T07:12:27.223Z,14.73
2023-10-06T07:15:30.559Z,14.58
2023-10-06T07:18:33.672Z,14.77
2023-10-06T07:21:35.951Z,14.87
2023-10-06T07:24:38.759Z,14.84
2023-10-06T07:27:42.269Z,15.20
2023-10-06T07:30:45.027Z,15.37
2023-10-06T07:33:52.841Z,15.68
2023-10-06T07:36:55.320Z,15.74
2023-10-06T07:39:57.476Z,15.94
2023-10-06T07:42:59.992Z,16.18
2023-10-06T07:46:08.809Z,16.46
2023-10-06T07:49:11.926Z,16.38
2023-10-06T07:52:14.179Z,16.40
2023-10-06T07:55:18.138Z,16.35
2023-10-06T07:58:20.395Z,16.38
2023-10-06T08:01:22.965Z,16.46
2023-10-06T08:04:25.498Z,16.81
2023-10-06T08:07:28.879Z,16.93
2023-10-06T08:10:32.213Z,17.03
2023-10-06T08:13:34.932Z,16.97
2023-10-06T08:16:38.764Z,17.00
2023-10-06T08:19:41.027Z,17.09
2023-10-06T08:22:47.807Z,17.19
2023-10-06T08:26:01.017Z,17.24
2023-10-06T08:29:05.681Z,17.47
2023-10-06T08:32:08.021Z,17.53
2023-10-06T08:35:14.401Z,17.57
2023-10-06T08:38:18.425Z,17.71
2023-10-06T08:41:27.657Z,17.92
2023-10-06T08:44:30.546Z,17.90
2023-10-06T08:47:41.996Z,18.03
2023-10-06T08:51:00.311Z,18.11
2023-10-06T08:54:05.751Z,18.15
2023-10-06T08:57:12.111Z,18.32
2023-10-06T09:00:25.144Z,18.30
2023-10-06T09:03:29.018Z,18.25
2023-10-06T09:06:32.890Z,18.29
2023-10-06T09:09:35.526Z,18.19
2023-10-06T09:12:39.001Z,18.29
2023-10-06T09:15:42.200Z,18.32
2023-10-06T09:19:01.680Z,18.28
2023-10-06T09:22:08.102Z,18.27
2023-10-06T09:25:11.671Z,18.40
2023-10-06T09:28:18.293Z,18.48
2023-10-06T09:31:37.985Z,18.41
2023-10-06T09:34:40.534Z,18.52
2023-10-06T09:37:43.095Z,18.69
2023-10-06T09:40:45.951Z,18.77
2023-10-06T09:43:49.624Z,18.84
2023-10-06T09:46:54.423Z,18.98
2023-10-06T09:49:59.337Z,19.15
2023-10-06T09:53:06.751Z,19.10
2023-10-06T09:56:12.472Z,18.97
2023-10-06T09:59:15.517Z,19.10
2023-10-06T10:02:22.172Z,19.29
2023-10-06T10:05:25.589Z,19.48
2023-10-06T10:08:30.050Z,19.59
2023-10-06T10:11:40.586Z,19.55
2023-10-06T10:15:01.113Z,19.57
2023-10-06T10:18:15.876Z,19.72
2023-10-06T10:21:19.199Z,19.96
2023-10-06T10:27:28.280Z,20.50
2023-10-06T10:31:14.850Z,21.37
2023-10-06T10:34:25.267Z,21.89
2023-10-06T10:37:28.266Z,22.16
2023-10-06T10:40:33.117Z,23.20
2023-10-06T10:43:49.842Z,24.76
2023-10-06T10:47:01.526Z,25.29
2023-10-06T10:50:06.516Z,26.71
2023-10-06T10:53:09.461Z,27.06
2023-10-06T10:56:14.570Z,28.71
2023-10-06T11:02:20.743Z,29.31
2023-10-06T11:05:23.581Z,31.08
2023-10-06T11:08:27.647Z,33.23
2023-10-06T11:11:31.664Z,33.79
2023-10-06T11:14:39.970Z,35.73
2023-10-06T11:17:43.449Z,36.70
2023-10-06T11:20:47.210Z,37.24
2023-10-06T11:23:49.580Z,38.04
2023-10-06T11:26:52.445Z,39.61
2023-10-06T11:29:58.292Z,38.57
2023-10-06T11:33:05.885Z,39.52
2023-10-06T11:36:08.899Z,38.00
2023-10-06T11:39:11.430Z,36.37
2023-10-06T11:42:26.054Z,32.85
2023-10-06T11:45:29.079Z,30.06
2023-10-06T11:48:37.107Z,27.63
2023-10-06T11:51:40.972Z,26.10
2023-10-06T11:54:43.347Z,25.55
2023-10-06T11:57:47.398Z,25.44
2023-10-06T12:00:50.110Z,24.92
2023-10-06T12:03:53.073Z,24.34
2023-10-06T12:06:56.486Z,23.64
2023-10-06T12:10:07.870Z,23.86
2023-10-06T12:13:11.666Z,23.84
2023-10-06T12:16:15.508Z,23.53
2023-10-06T12:19:17.758Z,22.89
2023-10-06T12:22:30.027Z,22.31
2023-10-06T12:25:42.735Z,21.99
2023-10-06T12:28:45.335Z,22.23
2023-10-06T12:31:48.904Z,22.46
2023-10-06T12:34:51.881Z,22.46
2023-10-06T12:37:55.314Z,22.26
2023-10-06T12:40:57.982Z,22.05
2023-10-06T12:44:05.867Z,22.14
2023-10-06T12:47:12.242Z,21.85
2023-10-06T12:50:20.440Z,21.46
2023-10-06T12:53:23.277Z,20.90
2023-10-06T12:56:25.634Z,20.89
2023-10-06T12:59:28.240Z,21.12
2023-10-06T13:02:33.010Z,20.89
2023-10-06T13:05:35.665Z,20.73
2023-10-06T13:08:39.418Z,20.68
2023-10-06T13:11:41.977Z,20.77
2023-10-06T13:14:44.565Z,20.75
2023-10-06T13:17:51.515Z,20.71
2023-10-06T13:20:53.885Z,20.60
2023-10-06T13:24:07.406Z,20.49
2023-10-06T13:27:09.950Z,20.54
2023-10-06T13:30:15.954Z,20.67
2023-10-06T13:33:19.363Z,20.94
2023-10-06T13:36:22.097Z,20.67
2023-10-06T13:39:26.736Z,20.76
2023-10-06T13:42:29.468Z,20.83
2023-10-06T13:45:32.324Z,20.89
2023-10-06T13:48:35.996Z,20.83
2023-10-06T13:51:38.824Z,20.88
2023-10-06T13:54:41.319Z,20.73
2023-10-06T13:57:48.241Z,20.73
2023-10-06T14:00:51.570Z,20.71
2023-10-06T14:03:54.101Z,20.54
2023-10-06T14:06:57.011Z,20.47
2023-10-06T14:09:59.616Z,20.46
2023-10-06T14:13:03.398Z,20.43
2023-10-06T14:16:11.804Z,20.32
2023-10-06T14:19:13.964Z,20.29
2023-10-06T14:22:22.284Z,20.20
2023-10-06T14:25:27.906Z,20.09
2023-10-06T14:28:30.330Z,20.08
2023-10-06T14:31:49.327Z,20.02
2023-10-06T14:34:59.310Z,19.95
2023-10-06T14:38:20.191Z,19.88
2023-10-06T14:41:41.215Z,19.85
2023-10-06T14:45:02.061Z,19.89
2023-10-06T14:48:05.792Z,19.81
2023-10-06T14:51:08.962Z,19.78
2023-10-06T14:54:12.594Z,19.74
2023-10-06T14:57:14.995Z,19.68
2023-10-06T15:00:17.503Z,19.68
2023-10-06T15:03:20.018Z,19.64
2023-10-06T15:06:22.921Z,19.58
2023-10-06T15:09:27.239Z,19.36
2023-10-06T15:12:29.750Z,19.24
2023-10-06T15:15:31.909Z,19.06
2023-10-06T15:18:34.952Z,18.94
2023-10-06T15:21:40.664Z,18.83
2023-10-06T15:24:43.153Z,19.09
2023-10-06T15:27:45.355Z,19.01
